Time;durP1;ratioP1;P1;durP2;ratioP2;P2;SDS_P1;SDS_P2;PMS_P1;PMS_P2;Temp;Humidity;BMP_temperature;BMP_pressure;BME280_temperature;BME280_humidity;BME280_pressure;Samples;Min_cycle;Max_cycle;Signal;HPM_P1;HPM_P2
2022/04/15 00:00:10;;;;;;;6.67;4.00;;;10.30;99.90;;;;;;5057261;28;20179;-76
2022/04/15 00:02:36;;;;;;;7.63;4.83;;;10.30;99.90;;;;;;5075085;28;20252;-76
2022/04/15 00:05:02;;;;;;;8.30;4.77;;;10.30;99.90;;;;;;5075033;28;20209;-76
2022/04/15 00:07:28;;;;;;;7.93;4.97;;;10.20;99.90;;;;;;5074874;28;20211;-77
2022/04/15 00:09:53;;;;;;;6.43;4.40;;;10.20;99.90;;;;;;5074979;28;20543;-76
2022/04/15 00:12:27;;;;;;;4.80;3.90;;;10.20;99.90;;;;;;5074926;28;20209;-76
2022/04/15 00:14:54;;;;;;;8.67;4.03;;;10.10;99.90;;;;;;5056936;28;20186;-76
2022/04/15 00:17:20;;;;;;;4.70;3.40;;;10.10;99.90;;;;;;5074940;28;20214;-77
2022/04/15 00:19:47;;;;;;;8.50;3.70;;;10.00;99.90;;;;;;5056726;28;20183;-76
2022/04/15 00:22:13;;;;;;;8.67;4.23;;;10.00;99.90;;;;;;5074969;28;20167;-76
2022/04/15 00:24:38;;;;;;;8.67;4.40;;;10.00;99.90;;;;;;5074821;28;20787;-76
2022/04/15 00:27:04;;;;;;;7.90;4.47;;;9.90;99.90;;;;;;5074534;28;20336;-76
2022/04/15 00:29:29;;;;;;;8.27;4.63;;;9.90;99.90;;;;;;5074526;28;20177;-77
2022/04/15 00:31:55;;;;;;;4.97;4.00;;;9.90;99.90;;;;;;5074452;28;20187;-77
2022/04/15 00:34:21;;;;;;;6.27;4.13;;;9.80;99.90;;;;;;5074472;28;20179;-76
2022/04/15 00:36:47;;;;;;;6.33;4.53;;;9.80;99.90;;;;;;5074262;28;20195;-76
2022/04/15 00:39:12;;;;;;;8.27;4.50;;;9.70;99.90;;;;;;5074416;28;20746;-76
2022/04/15 00:41:43;;;;;;;8.83;4.23;;;9.70;99.90;;;;;;5074268;28;20727;-76
2022/04/15 00:44:09;;;;;;;6.60;3.90;;;9.60;99.90;;;;;;5074563;28;20193;-76
2022/04/15 00:46:34;;;;;;;7.37;4.27;;;9.50;99.90;;;;;;5074084;28;20615;-76
2022/04/15 00:48:59;;;;;;;5.87;4.10;;;9.50;99.90;;;;;;5056139;28;20545;-76
2022/04/15 00:51:25;;;;;;;8.30;4.10;;;9.50;99.90;;;;;;5056208;28;20300;-76
2022/04/15 00:53:53;;;;;;;5.17;3.97;;;9.50;99.90;;;;;;5074313;28;20187;-76
2022/04/15 00:56:20;;;;;;;8.00;4.30;;;9.50;99.90;;;;;;5074004;28;20227;-76
2022/04/15 00:58:47;;;;;;;10.40;4.10;;;9.50;99.90;;;;;;5073945;28;20179;-76
2022/04/15 01:01:16;;;;;;;9.67;4.97;;;9.40;99.90;;;;;;5055978;28;20187;-76
2022/04/15 01:03:43;;;;;;;11.10;6.30;;;9.40;99.90;;;;;;5073272;28;20175;-76
2022/04/15 01:06:11;;;;;;;8.93;5.20;;;9.40;99.90;;;;;;5055597;28;20280;-76
2022/04/15 01:08:38;;;;;;;8.30;5.67;;;9.40;99.90;;;;;;5055908;28;20204;-76
2022/04/15 01:11:06;;;;;;;7.50;4.87;;;9.30;99.90;;;;;;5073995;28;20185;-76
2022/04/15 01:13:38;;;;;;;8.47;4.97;;;9.20;99.90;;;;;;5073662;28;20239;-77
2022/04/15 01:16:05;;;;;;;7.37;4.63;;;9.20;99.90;;;;;;5073648;28;20244;-76
2022/04/15 01:18:30;;;;;;;7.83;4.53;;;9.10;99.90;;;;;;5073858;28;20545;-76
2022/04/15 01:20:56;;;;;;;10.73;5.07;;;9.10;99.90;;;;;;5055664;28;20268;-76
2022/04/15 01:23:21;;;;;;;11.00;5.80;;;9.10;99.90;;;;;;5055592;28;20742;-76
2022/04/15 01:25:47;;;;;;;8.27;5.43;;;9.10;99.90;;;;;;5073629;28;20214;-76
2022/04/15 01:28:16;;;;;;;7.00;4.90;;;9.10;99.90;;;;;;5073337;28;20194;-76
2022/04/15 01:30:44;;;;;;;10.17;5.80;;;9.00;99.90;;;;;;5055680;28;20185;-76
2022/04/15 01:33:09;;;;;;;9.73;5.90;;;9.00;99.90;;;;;;5073617;28;20646;-76
2022/04/15 01:35:35;;;;;;;10.60;6.07;;;9.00;99.90;;;;;;5073230;28;20186;-77
2022/04/15 01:38:02;;;;;;;10.07;5.80;;;8.90;99.90;;;;;;5073222;28;20222;-77
2022/04/15 01:40:28;;;;;;;8.50;5.47;;;9.00;99.90;;;;;;5055345;28;20191;-77
2022/04/15 01:42:54;;;;;;;7.60;5.40;;;8.90;99.90;;;;;;5073198;28;20187;-77
2022/04/15 01:45:19;;;;;;;10.33;6.07;;;8.90;99.90;;;;;;5073056;28;20210;-77
2022/04/15 01:47:45;;;;;;;10.53;5.83;;;8.80;99.90;;;;;;5055144;28;20210;-76
2022/04/15 01:50:11;;;;;;;11.03;5.80;;;8.90;99.90;;;;;;5073095;28;20550;-76
2022/04/15 01:52:36;;;;;;;9.87;5.63;;;8.80;99.90;;;;;;5073213;28;20216;-76
2022/04/15 01:55:03;;;;;;;10.07;5.60;;;8.80;99.90;;;;;;5055621;28;20669;-76
2022/04/15 01:57:28;;;;;;;11.30;5.43;;;8.70;99.90;;;;;;5073706;28;20251;-77
2022/04/15 01:59:54;;;;;;;10.57;5.43;;;8.70;99.90;;;;;;5073457;28;20540;-76
2022/04/15 02:02:19;;;;;;;8.63;5.53;;;8.70;99.90;;;;;;5073331;28;20189;-76
2022/04/15 02:04:45;;;;;;;8.90;5.37;;;8.70;99.90;;;;;;5073055;28;20241;-76
2022/04/15 02:07:11;;;;;;;10.57;5.60;;;8.70;99.90;;;;;;5054703;28;20219;-76
2022/04/15 02:09:36;;;;;;;13.97;7.03;;;8.60;99.90;;;;;;5072897;28;20553;-76
2022/04/15 02:12:02;;;;;;;11.03;6.97;;;8.60;99.90;;;;;;5072836;28;20181;-77
2022/04/15 02:14:27;;;;;;;10.73;5.77;;;8.60;99.90;;;;;;5071895;28;20179;-76
2022/04/15 02:16:53;;;;;;;7.27;6.03;;;8.50;99.90;;;;;;5054695;28;20203;-76
2022/04/15 02:19:23;;;;;;;11.53;7.10;;;8.50;99.90;;;;;;5054757;28;20183;-77
2022/04/15 02:21:49;;;;;;;12.77;7.23;;;8.50;99.90;;;;;;5054776;28;20233;-76
2022/04/15 02:24:15;;;;;;;11.07;7.53;;;8.40;99.90;;;;;;5072633;28;20210;-76
2022/04/15 02:26:42;;;;;;;10.97;6.67;;;8.50;99.90;;;;;;5072637;28;20720;-77
2022/04/15 02:29:07;;;;;;;15.03;8.00;;;8.40;99.90;;;;;;5054955;28;20193;-76
2022/04/15 02:31:33;;;;;;;10.30;7.10;;;8.40;99.90;;;;;;5072021;28;20186;-78
2022/04/15 02:33:59;;;;;;;10.43;8.07;;;8.40;99.90;;;;;;5072138;28;20186;-76
2022/04/15 02:36:24;;;;;;;11.57;8.63;;;8.40;99.90;;;;;;5072530;28;20673;-76
2022/04/15 02:38:50;;;;;;;16.17;9.67;;;8.40;99.90;;;;;;5072486;28;20190;-76
2022/04/15 02:41:15;;;;;;;12.57;9.20;;;8.40;99.90;;;;;;5072804;28;20187;-76
2022/04/15 02:43:41;;;;;;;13.73;9.17;;;8.30;99.90;;;;;;5072571;28;20186;-76
2022/04/15 02:46:08;;;;;;;14.23;9.13;;;8.30;99.90;;;;;;5054449;28;20579;-76
2022/04/15 02:48:34;;;;;;;12.40;8.60;;;8.30;99.90;;;;;;5072749;28;20182;-76
2022/04/15 02:51:01;;;;;;;10.97;8.33;;;8.30;99.90;;;;;;5072515;28;20236;-77
2022/04/15 02:53:27;;;;;;;12.67;8.07;;;8.30;99.90;;;;;;5054431;28;20194;-76
2022/04/15 02:55:53;;;;;;;13.73;8.07;;;8.30;99.90;;;;;;5055188;28;20191;-77
2022/04/15 02:58:19;;;;;;;10.37;6.73;;;8.20;99.90;;;;;;5072395;28;20680;-76
2022/04/15 03:00:45;;;;;;;9.77;7.27;;;8.20;99.90;;;;;;5072299;28;20187;-75
2022/04/15 03:03:11;;;;;;;7.57;6.10;;;8.20;99.90;;;;;;5054404;28;20186;-76
2022/04/15 03:05:37;;;;;;;10.70;6.83;;;8.20;99.90;;;;;;5072382;28;20213;-77
2022/04/15 03:08:03;;;;;;;12.37;7.03;;;8.10;99.90;;;;;;5072222;28;20356;-76
2022/04/15 03:10:29;;;;;;;10.07;6.90;;;8.10;99.90;;;;;;5072364;28;20206;-76
2022/04/15 03:12:54;;;;;;;8.00;6.60;;;8.10;99.90;;;;;;5054298;28;20820;-76
2022/04/15 03:15:20;;;;;;;10.50;6.67;;;8.00;99.90;;;;;;5054295;28;20190;-77
2022/04/15 03:17:45;;;;;;;9.67;7.20;;;8.00;99.90;;;;;;5072432;28;20218;-76
2022/04/15 03:20:13;;;;;;;12.83;7.70;;;8.00;99.90;;;;;;5072180;28;20187;-76
2022/04/15 03:22:40;;;;;;;11.80;8.23;;;8.00;99.90;;;;;;5072140;28;20182;-76
2022/04/15 03:25:08;;;;;;;8.60;7.13;;;7.90;99.90;;;;;;5071884;28;20214;-76
2022/04/15 03:27:34;;;;;;;10.07;7.30;;;7.90;99.90;;;;;;5075078;28;20199;-76
2022/04/15 03:30:00;;;;;;;11.90;7.30;;;7.90;99.90;;;;;;5057696;28;20187;-76
2022/04/15 03:32:25;;;;;;;11.87;6.87;;;7.80;99.90;;;;;;5075907;28;20190;-76
2022/04/15 03:34:52;;;;;;;10.23;6.33;;;7.80;99.90;;;;;;5057646;28;20195;-76
2022/04/15 03:37:18;;;;;;;9.47;6.67;;;7.80;99.90;;;;;;5057614;28;20206;-77
2022/04/15 03:39:43;;;;;;;10.43;7.37;;;7.70;99.90;;;;;;5075510;28;20186;-76
2022/04/15 03:42:09;;;;;;;12.63;7.77;;;7.70;99.90;;;;;;5075470;28;20194;-77
2022/04/15 03:44:35;;;;;;;10.40;7.53;;;7.70;99.90;;;;;;5075493;28;20292;-76
2022/04/15 03:47:01;;;;;;;11.27;7.67;;;7.70;99.90;;;;;;5075336;28;20194;-76
2022/04/15 03:49:27;;;;;;;11.57;7.57;;;7.60;99.90;;;;;;5057402;28;20179;-76
2022/04/15 03:51:53;;;;;;;11.40;7.77;;;7.60;99.90;;;;;;5075292;28;20245;-76
2022/04/15 03:54:18;;;;;;;11.23;7.63;;;7.60;99.90;;;;;;5075308;28;20537;-76
2022/04/15 03:56:46;;;;;;;13.33;7.50;;;7.50;99.90;;;;;;5057254;28;20561;-76
2022/04/15 03:59:12;;;;;;;11.27;7.63;;;7.50;99.90;;;;;;5075119;28;20191;-76
2022/04/15 04:01:38;;;;;;;10.03;7.40;;;7.50;99.90;;;;;;5075111;28;20249;-76
2022/04/15 04:04:04;;;;;;;12.63;8.17;;;7.50;99.90;;;;;;5074998;28;20175;-76
2022/04/15 04:06:29;;;;;;;10.30;7.73;;;7.40;99.90;;;;;;5056864;28;20221;-76
2022/04/15 04:08:55;;;;;;;13.00;8.60;;;7.40;99.90;;;;;;5075037;28;20193;-76
2022/04/15 04:11:21;;;;;;;10.00;7.50;;;7.40;99.90;;;;;;5056952;28;20198;-77
2022/04/15 04:13:47;;;;;;;9.87;7.63;;;7.40;99.90;;;;;;5075107;28;20254;-76
2022/04/15 04:16:12;;;;;;;10.63;7.90;;;7.30;99.90;;;;;;5074757;28;20703;-74
2022/04/15 04:18:41;;;;;;;11.93;7.73;;;7.30;99.90;;;;;;5074787;28;20657;-76
2022/04/15 04:21:08;;;;;;;9.73;8.00;;;7.30;99.90;;;;;;5056753;28;20191;-76
2022/04/15 04:23:34;;;;;;;10.97;7.57;;;7.30;99.90;;;;;;5056756;28;20226;-76
2022/04/15 04:26:01;;;;;;;13.13;8.50;;;7.30;99.90;;;;;;5074464;28;20701;-75
2022/04/15 04:28:26;;;;;;;11.40;7.87;;;7.30;99.90;;;;;;5074521;28;20195;-76
2022/04/15 04:30:52;;;;;;;15.60;8.63;;;7.30;99.90;;;;;;5074544;28;20550;-76
2022/04/15 04:33:19;;;;;;;9.73;7.97;;;7.20;99.90;;;;;;5074445;28;20672;-76
2022/04/15 04:35:44;;;;;;;10.53;7.80;;;7.20;99.90;;;;;;5074403;28;20187;-76
2022/04/15 04:38:10;;;;;;;11.87;7.20;;;7.20;99.90;;;;;;5073621;28;20201;-76
2022/04/15 04:40:36;;;;;;;8.70;6.83;;;7.10;99.90;;;;;;5056398;28;20193;-76
2022/04/15 04:43:04;;;;;;;10.70;6.90;;;7.10;99.90;;;;;;5074583;28;20182;-76
2022/04/15 04:45:31;;;;;;;10.17;7.33;;;7.10;99.90;;;;;;5074231;28;20205;-76
2022/04/15 04:47:57;;;;;;;11.47;7.90;;;7.10;99.90;;;;;;5074197;28;20202;-76
2022/04/15 04:50:23;;;;;;;12.13;7.80;;;7.10;99.90;;;;;;5074192;28;20316;-76
2022/04/15 04:52:49;;;;;;;11.20;8.33;;;7.10;99.90;;;;;;5074102;28;20249;-76
2022/04/15 04:55:16;;;;;;;10.57;8.13;;;7.00;99.90;;;;;;5056139;28;20191;-76
2022/04/15 04:57:44;;;;;;;12.90;9.23;;;7.10;99.90;;;;;;5073942;28;20202;-76
2022/04/15 05:00:11;;;;;;;10.93;7.57;;;7.10;99.90;;;;;;5073929;28;20183;-76
2022/04/15 05:02:37;;;;;;;15.87;8.80;;;7.00;99.90;;;;;;5074048;28;20191;-76
2022/04/15 05:05:04;;;;;;;11.20;8.53;;;7.00;99.90;;;;;;5074044;28;20212;-77
2022/04/15 05:07:30;;;;;;;14.80;10.77;;;7.00;99.90;;;;;;5100875;22;20234;-75
2022/04/15 05:09:55;;;;;;;14.57;9.47;;;7.00;99.90;;;;;;5073789;28;20237;-74
2022/04/15 05:12:21;;;;;;;13.53;10.77;;;7.10;99.90;;;;;;5055810;28;20232;-74
2022/04/15 05:14:47;;;;;;;18.13;11.67;;;7.10;99.90;;;;;;5055680;28;20564;-74
2022/04/15 05:17:13;;;;;;;17.00;11.20;;;7.20;99.90;;;;;;5055697;28;20199;-75
2022/04/15 05:19:38;;;;;;;17.63;12.20;;;7.20;99.90;;;;;;5073630;28;20183;-75
2022/04/15 05:22:04;;;;;;;20.37;12.77;;;7.30;99.90;;;;;;5073863;28;20236;-75
2022/04/15 05:24:30;;;;;;;17.43;11.90;;;7.30;99.90;;;;;;5055522;28;20689;-75
2022/04/15 05:26:55;;;;;;;19.77;12.60;;;7.40;99.90;;;;;;5055558;28;20194;-75
2022/04/15 05:29:21;;;;;;;20.00;14.00;;;7.40;99.90;;;;;;5073438;28;20526;-75
2022/04/15 05:31:47;;;;;;;22.43;16.73;;;7.50;99.90;;;;;;5073877;28;20175;-74
2022/04/15 05:34:12;;;;;;;29.37;17.87;;;7.60;99.90;;;;;;5055444;28;20221;-75
2022/04/15 05:36:38;;;;;;;31.60;20.57;;;7.80;99.90;;;;;;5073250;28;20660;-74
2022/04/15 05:39:03;;;;;;;30.90;20.57;;;7.90;99.90;;;;;;5073230;28;20186;-74
2022/04/15 05:41:29;;;;;;;29.87;21.17;;;7.90;99.90;;;;;;5055317;28;20228;-74
2022/04/15 05:43:57;;;;;;;26.63;19.80;;;7.90;99.90;;;;;;5073177;28;20214;-74
2022/04/15 05:46:23;;;;;;;34.27;19.73;;;8.00;99.90;;;;;;5055131;28;20208;-74
2022/04/15 05:48:48;;;;;;;29.37;21.50;;;8.00;99.90;;;;;;5055050;28;20179;-74
2022/04/15 05:51:14;;;;;;;30.93;20.80;;;8.00;99.90;;;;;;5055218;28;20192;-74
2022/04/15 05:53:39;;;;;;;29.07;20.97;;;8.10;99.90;;;;;;5055119;28;20187;-75
2022/04/15 05:56:05;;;;;;;31.57;20.80;;;8.10;99.90;;;;;;5073027;28;20179;-75
2022/04/15 05:58:30;;;;;;;33.13;21.43;;;8.10;99.90;;;;;;5054944;28;20218;-76
2022/04/15 06:00:56;;;;;;;34.03;22.90;;;8.10;99.90;;;;;;5072995;28;20190;-75
2022/04/15 06:03:22;;;;;;;34.13;21.23;;;8.20;99.90;;;;;;5054912;28;20183;-75
2022/04/15 06:05:49;;;;;;;31.23;22.03;;;8.20;99.90;;;;;;5054912;28;20216;-75
2022/04/15 06:08:16;;;;;;;31.80;21.03;;;8.20;99.90;;;;;;5054730;28;20229;-75
2022/04/15 06:10:42;;;;;;;33.40;20.50;;;8.30;99.90;;;;;;5072829;28;20178;-75
2022/04/15 06:13:14;;;;;;;28.23;19.87;;;8.30;99.90;;;;;;5073085;28;20189;-75
2022/04/15 06:15:51;;;;;;;28.40;20.60;;;8.30;99.90;;;;;;5073403;28;20185;-75
2022/04/15 06:18:18;;;;;;;30.60;19.63;;;8.30;99.90;;;;;;5054945;28;20234;-75
2022/04/15 06:20:44;;;;;;;26.50;18.73;;;8.30;99.90;;;;;;5073023;28;20257;-75
2022/04/15 06:23:09;;;;;;;27.73;19.07;;;8.30;99.90;;;;;;5055093;28;20617;-74
2022/04/15 06:25:35;;;;;;;31.97;19.53;;;8.30;99.90;;;;;;5073007;28;20597;-76
2022/04/15 06:28:00;;;;;;;34.83;21.33;;;8.30;99.90;;;;;;5054810;28;20669;-75
2022/04/15 06:30:27;;;;;;;37.50;22.33;;;8.30;99.90;;;;;;5072878;28;20208;-74
2022/04/15 06:32:53;;;;;;;36.23;22.40;;;8.40;99.90;;;;;;5054696;28;20190;-75
2022/04/15 06:35:18;;;;;;;39.70;22.90;;;8.30;99.90;;;;;;5055044;28;20183;-75
2022/04/15 06:37:44;;;;;;;34.80;19.43;;;8.30;99.90;;;;;;5073887;28;20206;-75
2022/04/15 06:40:10;;;;;;;22.13;16.87;;;8.20;99.90;;;;;;5072912;28;20214;-74
2022/04/15 06:42:36;;;;;;;21.37;16.07;;;8.20;99.90;;;;;;5072599;28;20708;-75
2022/04/15 06:45:01;;;;;;;21.63;15.47;;;8.30;99.90;;;;;;5054505;28;20207;-75
2022/04/15 06:47:27;;;;;;;24.97;17.50;;;8.30;99.90;;;;;;5072367;28;20237;-76
2022/04/15 06:49:53;;;;;;;33.43;21.83;;;8.30;99.90;;;;;;5072461;28;20217;-74
2022/04/15 06:52:18;;;;;;;32.70;22.50;;;8.40;99.90;;;;;;5054563;28;20190;-74
2022/04/15 06:54:44;;;;;;;28.90;21.00;;;8.50;99.90;;;;;;5072740;28;20258;-75
2022/04/15 06:57:10;;;;;;;29.60;21.07;;;8.50;99.90;;;;;;5072361;28;20205;-74
2022/04/15 06:59:36;;;;;;;26.97;19.63;;;8.50;99.90;;;;;;5072399;28;20190;-74
2022/04/15 07:02:02;;;;;;;27.67;18.70;;;8.50;99.90;;;;;;5074644;28;20258;-75
2022/04/15 07:04:28;;;;;;;28.07;18.47;;;8.60;99.90;;;;;;5076018;28;20226;-74
2022/04/15 07:06:55;;;;;;;23.00;19.30;;;8.70;99.90;;;;;;5076241;28;20205;-75
2022/04/15 07:09:20;;;;;;;25.43;19.53;;;8.70;99.90;;;;;;5076063;28;20220;-75
2022/04/15 07:11:47;;;;;;;28.80;19.30;;;8.80;99.90;;;;;;5058104;28;20183;-74
2022/04/15 07:14:12;;;;;;;24.67;20.40;;;8.90;99.90;;;;;;5058096;28;20174;-75
2022/04/15 07:16:38;;;;;;;23.90;19.00;;;9.00;99.90;;;;;;5076539;28;20179;-75
2022/04/15 07:19:07;;;;;;;23.83;19.00;;;9.10;99.90;;;;;;5075710;28;20279;-75
2022/04/15 07:21:37;;;;;;;21.00;18.47;;;9.20;99.90;;;;;;5076007;28;20194;-75
2022/04/15 07:24:04;;;;;;;21.70;17.80;;;9.20;99.90;;;;;;5057979;28;20244;-75
2022/04/15 07:26:30;;;;;;;19.27;17.17;;;9.30;99.90;;;;;;5075583;28;20175;-75
2022/04/15 07:28:55;;;;;;;24.60;16.50;;;9.40;99.90;;;;;;5075678;28;20182;-76
2022/04/15 07:31:22;;;;;;;22.37;15.93;;;9.40;99.90;;;;;;5076333;28;20305;-75
2022/04/15 07:33:47;;;;;;;17.20;15.33;;;9.40;99.90;;;;;;5075661;28;20710;-75
2022/04/15 07:36:42;;;;;;;17.80;14.30;;;9.50;99.90;;;;;;5075626;28;20262;-75
2022/04/15 07:39:09;;;;;;;16.17;13.17;;;9.40;99.90;;;;;;5057600;28;20207;-76
2022/04/15 07:41:36;;;;;;;13.97;12.17;;;9.50;99.90;;;;;;5057472;28;20187;-76
2022/04/15 07:44:06;;;;;;;15.87;13.13;;;9.50;99.90;;;;;;5075325;28;20171;-76
2022/04/15 07:46:33;;;;;;;15.27;10.43;;;9.50;99.90;;;;;;5075366;28;20186;-76
2022/04/15 07:48:59;;;;;;;12.97;10.70;;;9.40;99.90;;;;;;5057464;28;20175;-75
2022/04/15 07:51:24;;;;;;;11.87;10.27;;;9.60;99.90;;;;;;5057387;28;20713;-76
2022/04/15 07:53:50;;;;;;;13.00;10.30;;;9.60;99.90;;;;;;5057338;28;20217;-76
2022/04/15 07:56:16;;;;;;;15.07;9.97;;;9.70;99.90;;;;;;5057591;28;20187;-76
2022/04/15 07:58:41;;;;;;;14.30;9.13;;;9.80;99.90;;;;;;5075111;28;20199;-76
2022/04/15 08:01:07;;;;;;;12.47;9.67;;;9.70;99.90;;;;;;5057190;28;20186;-76
2022/04/15 08:03:33;;;;;;;9.23;8.30;;;9.80;99.90;;;;;;5075106;28;20603;-75
2022/04/15 08:05:59;;;;;;;7.13;6.43;;;9.80;99.90;;;;;;5057008;28;20246;-76
2022/04/15 08:08:24;;;;;;;6.87;5.57;;;9.70;99.90;;;;;;5074799;28;20782;-76
2022/04/15 08:10:53;;;;;;;4.70;4.30;;;9.80;99.90;;;;;;5075558;28;20171;-76
2022/04/15 08:13:19;;;;;;;7.50;4.50;;;9.90;99.90;;;;;;5075202;28;20175;-76
2022/04/15 08:15:45;;;;;;;5.13;4.00;;;10.10;99.90;;;;;;5056968;28;20232;-76
2022/04/15 08:18:11;;;;;;;7.23;3.57;;;10.10;1.00;;;;;;5056855;28;20202;-76
2022/04/15 08:20:36;;;;;;;6.87;3.60;;;10.20;1.00;;;;;;5056778;28;20560;-76
2022/04/15 08:23:03;;;;;;;7.20;3.40;;;10.40;1.00;;;;;;5074726;28;20183;-76
2022/04/15 08:25:30;;;;;;;4.93;2.93;;;10.40;99.90;;;;;;5074668;28;20265;-76
2022/04/15 08:27:55;;;;;;;5.57;2.73;;;10.30;1.00;;;;;;5056621;28;20289;-75
2022/04/15 08:30:21;;;;;;;5.50;2.47;;;10.40;1.00;;;;;;5074577;28;20305;-76
2022/04/15 08:32:53;;;;;;;4.90;2.77;;;10.40;1.00;;;;;;5072937;28;20190;-77
2022/04/15 08:35:19;;;;;;;4.63;2.77;;;10.40;1.00;;;;;;5056521;28;20536;-76
2022/04/15 08:37:44;;;;;;;4.53;2.80;;;10.50;99.90;;;;;;5074277;28;20201;-76
2022/04/15 08:40:11;;;;;;;5.10;2.60;;;10.60;99.90;;;;;;5056512;28;20194;-76
2022/04/15 08:42:42;;;;;;;6.90;3.23;;;10.70;99.90;;;;;;5074322;28;20633;-76
2022/04/15 08:45:09;;;;;;;3.73;3.13;;;10.70;1.00;;;;;;5074130;28;20257;-75
2022/04/15 08:47:38;;;;;;;6.93;3.30;;;10.60;1.00;;;;;;5074133;28;20191;-76
2022/04/15 08:50:05;;;;;;;8.90;3.50;;;10.60;99.90;;;;;;5074137;28;20272;-75
2022/04/15 08:52:31;;;;;;;4.50;3.00;;;10.60;1.00;;;;;;5074039;28;20199;-76
2022/04/15 08:54:58;;;;;;;4.80;2.83;;;10.70;1.00;;;;;;5074077;28;20199;-76
2022/04/15 08:57:24;;;;;;;7.70;3.63;;;10.90;99.90;;;;;;5056009;28;20211;-75
2022/04/15 08:59:50;;;;;;;5.67;3.43;;;10.90;1.00;;;;;;5074149;28;20174;-75
2022/04/15 09:02:32;;;;;;;4.83;3.00;;;10.90;1.00;;;;;;5056013;28;20229;-75
2022/04/15 09:05:02;;;;;;;6.77;3.07;;;11.00;99.90;;;;;;5074068;28;20198;-74
2022/04/15 09:07:29;;;;;;;6.03;4.90;;;11.00;99.90;;;;;;5073340;28;20218;-74
2022/04/15 09:09:56;;;;;;;5.37;4.00;;;10.90;99.90;;;;;;5073661;28;20182;-74
2022/04/15 09:12:25;;;;;;;4.77;3.70;;;11.00;1.00;;;;;;5054046;28;20183;-75
2022/04/15 09:14:54;;;;;;;6.33;3.30;;;11.00;1.00;;;;;;5073661;28;20198;-75
2022/04/15 09:17:23;;;;;;;7.10;4.07;;;11.00;99.90;;;;;;5052415;28;20772;-75
2022/04/15 09:19:52;;;;;;;5.63;4.27;;;10.90;1.00;;;;;;5053142;28;20217;-75
2022/04/15 09:22:18;;;;;;;7.57;4.07;;;11.00;99.90;;;;;;5063626;28;20199;-75
2022/04/15 09:24:46;;;;;;;5.60;4.10;;;11.10;99.90;;;;;;5053076;28;20247;-76
2022/04/15 09:27:11;;;;;;;6.27;4.00;;;11.10;1.00;;;;;;5069561;28;20690;-76
2022/04/15 09:29:39;;;;;;;6.83;3.93;;;11.10;99.90;;;;;;5073659;28;20175;-74
2022/04/15 09:32:17;;;;;;;6.67;4.47;;;11.10;1.00;;;;;;5073433;28;20183;-75
2022/04/15 09:35:05;;;;;;;8.43;5.10;;;11.20;99.90;;;;;;5052870;28;20189;-75
2022/04/15 09:37:34;;;;;;;7.40;4.00;;;11.30;99.90;;;;;;5055633;28;20206;-74
2022/04/15 09:40:09;;;;;;;6.33;3.60;;;11.30;1.00;;;;;;5073213;28;20171;-74
2022/04/15 09:42:36;;;;;;;4.77;3.60;;;11.40;1.00;;;;;;5054437;28;20190;-75
2022/04/15 09:45:19;;;;;;;4.73;3.33;;;11.30;99.90;;;;;;5055206;28;20302;-74
2022/04/15 09:48:06;;;;;;;6.90;3.90;;;11.20;1.00;;;;;;5073056;28;20195;-74
2022/04/15 09:50:42;;;;;;;6.17;4.17;;;11.20;99.90;;;;;;5086573;28;20193;-74
2022/04/15 09:53:16;;;;;;;6.57;5.13;;;11.40;1.00;;;;;;5071427;28;20178;-75
2022/04/15 09:55:46;;;;;;;6.20;4.07;;;11.40;1.00;;;;;;5071565;28;20273;-75
2022/04/15 09:58:28;;;;;;;6.27;4.40;;;11.30;1.00;;;;;;5055092;28;20210;-75
2022/04/15 10:00:56;;;;;;;6.87;5.80;;;11.30;1.00;;;;;;5070749;28;20183;-74
2022/04/15 10:03:23;;;;;;;6.60;6.00;;;11.40;1.00;;;;;;5071614;28;20273;-76
2022/04/15 10:05:50;;;;;;;8.00;6.30;;;11.40;1.00;;;;;;5072490;28;20292;-74
2022/04/15 10:08:19;;;;;;;10.13;6.43;;;11.50;99.90;;;;;;5054712;28;20250;-75
2022/04/15 10:10:45;;;;;;;9.63;7.50;;;11.60;1.00;;;;;;5054095;28;20665;-75
2022/04/15 10:13:14;;;;;;;8.07;7.27;;;11.50;99.90;;;;;;5072838;28;20180;-75
2022/04/15 10:15:40;;;;;;;12.50;7.30;;;11.40;1.00;;;;;;5055165;28;20552;-74
2022/04/15 10:18:06;;;;;;;8.93;6.87;;;11.30;1.00;;;;;;5053477;28;20214;-75
2022/04/15 10:20:32;;;;;;;10.40;8.83;;;11.30;99.90;;;;;;5072973;28;20519;-75
2022/04/15 10:23:16;;;;;;;12.73;10.60;;;11.30;1.00;;;;;;5073060;28;20183;-75
2022/04/15 10:25:46;;;;;;;11.00;9.80;;;11.30;2.50;;;;;;5070068;28;20285;-76
2022/04/15 10:28:20;;;;;;;12.93;10.67;;;11.20;99.90;;;;;;5072545;28;20287;-76
2022/04/15 10:31:07;;;;;;;13.20;10.80;;;11.20;99.90;;;;;;5067763;28;20732;-76
2022/04/15 10:33:33;;;;;;;11.20;9.73;;;11.20;1.00;;;;;;5055642;28;20179;-75
2022/04/15 10:36:20;;;;;;;11.97;10.53;;;11.10;1.00;;;;;;5055339;28;20269;-75
2022/04/15 10:39:06;;;;;;;11.40;9.53;;;11.10;99.90;;;;;;5058062;28;20206;-75
2022/04/15 10:41:48;;;;;;;11.63;9.27;;;11.20;1.00;;;;;;5056177;28;20669;-76
2022/04/15 10:44:36;;;;;;;11.47;8.70;;;11.40;99.90;;;;;;5064619;28;20661;-75
2022/04/15 10:47:17;;;;;;;9.83;8.23;;;11.50;1.00;;;;;;5076527;28;20336;-76
2022/04/15 10:50:03;;;;;;;8.50;7.70;;;11.50;99.90;;;;;;5074711;28;20198;-76
2022/04/15 10:52:30;;;;;;;9.53;7.97;;;11.60;99.90;;;;;;5056376;28;20156;-76
2022/04/15 10:54:59;;;;;;;9.63;8.07;;;11.60;1.00;;;;;;5056384;28;20222;-75
2022/04/15 10:57:34;;;;;;;8.93;7.83;;;11.70;1.00;;;;;;5057208;28;20568;-75
2022/04/15 11:02:50;;;;;;;6.57;5.40;;;11.70;1.00;;;;;;5076866;28;20673;-75
2022/04/15 11:05:32;;;;;;;6.23;5.67;;;11.60;99.90;;;;;;5076120;28;20256;-75
2022/04/15 11:08:04;;;;;;;8.43;7.47;;;11.60;99.90;;;;;;5094328;22;20542;-77
2022/04/15 11:10:42;;;;;;;9.13;7.80;;;11.70;72.10;;;;;;5077438;28;20262;-77
2022/04/15 11:13:09;;;;;;;11.07;8.47;;;11.70;1.00;;;;;;5076898;28;20179;-77
2022/04/15 11:15:57;;;;;;;11.47;9.70;;;11.70;9.90;;;;;;5092281;28;20194;-77
2022/04/15 11:18:23;;;;;;;11.53;10.20;;;11.70;1.00;;;;;;5076998;28;20201;-77
2022/04/15 11:20:49;;;;;;;11.57;10.40;;;11.80;1.00;;;;;;5076916;28;20187;-77
2022/04/15 11:23:15;;;;;;;13.83;11.37;;;11.80;37.20;;;;;;5076836;28;20213;-77
2022/04/15 11:25:44;;;;;;;13.03;11.73;;;11.90;99.90;;;;;;5076443;28;20211;-77
2022/04/15 11:28:10;;;;;;;13.57;12.07;;;11.90;99.90;;;;;;5058750;28;20697;-77
2022/04/15 11:30:36;;;;;;;15.87;13.47;;;11.80;1.00;;;;;;5077022;28;20185;-78
2022/04/15 11:33:06;;;;;;;13.90;12.50;;;11.90;1.00;;;;;;5059003;28;20182;-77
2022/04/15 11:35:34;;;;;;;15.03;13.47;;;11.70;43.20;;;;;;5076804;28;20179;-78
2022/04/15 11:38:03;;;;;;;15.17;13.40;;;11.60;1.00;;;;;;5059097;28;20301;-77
2022/04/15 11:40:36;;;;;;;14.83;13.43;;;11.50;1.00;;;;;;5059062;28;20654;-77
2022/04/15 11:43:11;;;;;;;14.07;12.60;;;11.50;77.90;;;;;;5061449;28;20195;-78
2022/04/15 11:45:39;;;;;;;14.77;13.23;;;11.60;99.90;;;;;;5081326;28;20194;-78
2022/04/15 11:48:22;;;;;;;16.03;13.00;;;11.60;1.00;;;;;;5078922;28;20198;-78
2022/04/15 11:50:51;;;;;;;20.50;13.23;;;11.70;1.00;;;;;;5080522;28;20198;-77
2022/04/15 11:53:18;;;;;;;14.27;12.87;;;11.70;1.00;;;;;;5078139;28;20210;-77
2022/04/15 11:56:02;;;;;;;14.43;12.87;;;11.60;99.90;;;;;;5076837;28;20186;-77
2022/04/15 11:58:35;;;;;;;14.30;12.93;;;11.60;99.90;;;;;;5076969;28;20195;-78
2022/04/15 12:01:02;;;;;;;15.07;13.63;;;11.60;26.40;;;;;;5076880;28;20205;-77
2022/04/15 12:03:28;;;;;;;14.43;13.03;;;11.70;99.90;;;;;;5058885;28;20642;-77
2022/04/15 12:05:57;;;;;;;15.10;13.60;;;11.70;99.90;;;;;;5060086;28;20210;-77
2022/04/15 12:08:24;;;;;;;15.87;14.27;;;11.70;99.90;;;;;;5059518;28;20226;-77
2022/04/15 12:10:50;;;;;;;16.07;14.33;;;11.60;1.00;;;;;;5080587;28;20199;-77
2022/04/15 12:13:17;;;;;;;15.23;13.83;;;11.60;1.00;;;;;;5080626;28;20179;-78
2022/04/15 12:15:44;;;;;;;16.13;14.53;;;11.70;1.00;;;;;;5076876;28;20261;-77
2022/04/15 12:18:10;;;;;;;16.83;15.23;;;11.70;1.00;;;;;;5076147;28;20301;-78
2022/04/15 12:20:39;;;;;;;17.13;15.53;;;11.80;1.00;;;;;;5058601;28;20286;-77
2022/04/15 12:23:08;;;;;;;16.53;14.90;;;11.90;99.90;;;;;;5076704;28;20191;-77
2022/04/15 12:31:02;;;;;;;16.77;15.17;;;11.80;1.00;;;;;;5075971;28;20170;-77
2022/04/15 12:33:28;;;;;;;17.60;15.87;;;11.80;1.00;;;;;;5075583;28;20171;-77
2022/04/15 12:36:01;;;;;;;16.10;14.40;;;11.80;99.90;;;;;;5075612;28;20253;-77
2022/04/15 12:38:28;;;;;;;16.67;15.00;;;11.90;99.90;;;;;;5075526;28;20191;-78
2022/04/15 12:41:00;;;;;;;15.97;14.37;;;11.90;99.90;;;;;;5075236;28;20257;-78
2022/04/15 12:43:25;;;;;;;15.60;14.10;;;11.90;99.90;;;;;;5058145;28;20246;-79
2022/04/15 12:45:54;;;;;;;15.13;13.63;;;11.90;99.90;;;;;;5086512;28;20199;-78
2022/04/15 12:48:20;;;;;;;14.23;12.90;;;12.00;99.90;;;;;;5059118;28;20203;-78
2022/04/15 12:50:52;;;;;;;13.77;12.53;;;12.10;1.00;;;;;;5058788;28;20179;-78
2022/04/15 12:53:23;;;;;;;15.70;14.20;;;12.00;1.00;;;;;;5058858;28;20179;-79
2022/04/15 12:55:49;;;;;;;14.57;13.20;;;12.10;99.90;;;;;;5076624;28;20182;-78